createdAt,value
2023-05-17T00:00:03.160Z,75.6
2023-05-17T00:03:03.246Z,75.6
2023-05-17T00:06:03.189Z,75.6
2023-05-17T00:09:03.135Z,75.6
2023-05-17T00:12:03.141Z,75.6
2023-05-17T00:15:03.039Z,75.6
2023-05-17T00:18:03.354Z,75.6
2023-05-17T00:21:03.055Z,75.6
2023-05-17T00:24:03.134Z,75.6
2023-05-17T00:27:03.065Z,75.6
2023-05-17T00:30:03.094Z,75.6
2023-05-17T00:33:03.257Z,75.6
2023-05-17T00:36:03.103Z,78.3
2023-05-17T00:39:03.153Z,78.3
2023-05-17T00:42:03.102Z,78.3
2023-05-17T00:45:03.258Z,78.3
2023-05-17T00:48:03.338Z,78.3
2023-05-17T00:51:03.081Z,78.3
2023-05-17T00:54:03.155Z,78.3
2023-05-17T00:57:03.080Z,78.3
2023-05-17T01:00:03.192Z,78.3
2023-05-17T01:03:03.430Z,78.3
2023-05-17T01:06:03.106Z,78.3
2023-05-17T01:09:03.133Z,78.3
2023-05-17T01:12:03.075Z,78.3
2023-05-17T01:15:03.165Z,78.3
2023-05-17T01:18:03.491Z,78.3
2023-05-17T01:21:03.075Z,78.3
2023-05-17T01:24:03.147Z,78.3
2023-05-17T01:27:03.187Z,78.3
2023-05-17T01:30:03.096Z,78.3
2023-05-17T01:33:03.332Z,78.3
2023-05-17T01:36:03.150Z,78.3
2023-05-17T01:39:03.125Z,78.3
2023-05-17T01:42:03.074Z,78.3
2023-05-17T01:45:03.102Z,78.3
2023-05-17T01:48:03.472Z,78.3
2023-05-17T01:51:03.154Z,78.3
2023-05-17T01:54:03.173Z,78.3
2023-05-17T01:57:03.094Z,78.3
2023-05-17T02:00:03.197Z,78.3
2023-05-17T02:03:03.221Z,81.2
2023-05-17T02:06:03.076Z,81.2
2023-05-17T02:09:03.228Z,81.2
2023-05-17T02:12:03.250Z,81.2
2023-05-17T02:15:03.082Z,81.2
2023-05-17T02:18:03.342Z,81.2
2023-05-17T02:21:03.134Z,81.2
2023-05-17T02:24:03.116Z,81.2
2023-05-17T02:27:03.110Z,81.2
2023-05-17T02:30:03.198Z,81.2
2023-05-17T02:33:03.312Z,81.2
2023-05-17T02:36:03.111Z,81.2
2023-05-17T02:39:03.102Z,81.2
2023-05-17T02:42:03.069Z,81.2
2023-05-17T02:45:03.064Z,82.2
2023-05-17T02:48:03.295Z,82.2
2023-05-17T02:51:03.207Z,82.2
2023-05-17T02:54:03.168Z,82.2
2023-05-17T02:57:03.181Z,82.2
2023-05-17T03:00:03.554Z,82.2
2023-05-17T03:03:03.236Z,82.2
2023-05-17T03:06:03.172Z,82.2
2023-05-17T03:09:03.182Z,82.2
2023-05-17T03:12:03.070Z,82.2
2023-05-17T03:15:03.115Z,82.2
2023-05-17T03:18:03.442Z,82.2
2023-05-17T03:21:03.137Z,82.2
2023-05-17T03:24:03.191Z,82.2
2023-05-17T03:27:03.152Z,82.2
2023-05-17T03:30:03.324Z,82.2
2023-05-17T03:33:03.288Z,84.4
2023-05-17T03:36:03.146Z,84.4
2023-05-17T03:39:03.311Z,84.4
2023-05-17T03:42:03.387Z,84.4
2023-05-17T03:45:03.169Z,84.4
2023-05-17T03:48:03.440Z,84.4
2023-05-17T03:51:03.153Z,84.4
2023-05-17T03:54:03.352Z,84.4
2023-05-17T03:57:03.272Z,84.4
2023-05-17T04:00:03.752Z,84.6
2023-05-17T04:03:03.407Z,84.6
2023-05-17T04:06:03.459Z,84.6
2023-05-17T04:09:03.193Z,84.6
2023-05-17T04:12:03.264Z,84.6
2023-05-17T04:15:03.146Z,84.6
2023-05-17T04:18:03.625Z,84.6
2023-05-17T04:21:03.225Z,84.6
2023-05-17T04:24:03.521Z,84.6
2023-05-17T04:27:05.893Z,84.6
2023-05-17T04:30:03.308Z,84.6
2023-05-17T04:33:03.930Z,84.6
2023-05-17T04:36:03.288Z,83.9
2023-05-17T04:39:03.195Z,83.9
2023-05-17T04:42:03.288Z,83.9
2023-05-17T04:45:03.570Z,83.9
2023-05-17T04:48:03.417Z,83
2023-05-17T04:51:03.286Z,83
2023-05-17T04:54:03.274Z,83
2023-05-17T04:57:03.261Z,83
2023-05-17T05:00:03.628Z,83
2023-05-17T05:03:03.440Z,81.6
2023-05-17T05:06:03.232Z,81.6
2023-05-17T05:09:03.369Z,81.6
2023-05-17T05:12:03.291Z,81.6
2023-05-17T05:15:03.675Z,81.6
2023-05-17T05:18:03.601Z,81.6
2023-05-17T05:21:03.292Z,81.6
2023-05-17T05:24:03.261Z,81.6
2023-05-17T05:27:04.989Z,81.6
2023-05-17T05:30:03.999Z,80.8
2023-05-17T05:33:03.735Z,80.8
2023-05-17T05:36:03.265Z,80.8
2023-05-17T05:39:03.394Z,80.8
2023-05-17T05:42:03.512Z,80.8
2023-05-17T05:45:03.296Z,80.8
2023-05-17T05:48:03.441Z,80.8
2023-05-17T05:51:03.136Z,80.8
2023-05-17T05:54:03.758Z,80.8
2023-05-17T05:57:03.292Z,78.6
2023-05-17T06:00:03.398Z,78.6
2023-05-17T06:03:03.460Z,78.6
2023-05-17T06:06:03.402Z,78.6
2023-05-17T06:09:03.206Z,75.9
2023-05-17T06:12:03.281Z,75.9
2023-05-17T06:15:03.284Z,75.9
2023-05-17T06:18:03.484Z,75.9
2023-05-17T06:21:03.165Z,75.9
2023-05-17T06:24:07.202Z,75.9
2023-05-17T06:27:03.311Z,75.9
2023-05-17T06:30:04.898Z,75.9
2023-05-17T06:33:03.788Z,73
2023-05-17T06:39:03.203Z,73
2023-05-17T06:42:03.305Z,73
2023-05-17T06:45:03.251Z,73
2023-05-17T06:48:03.742Z,73
2023-05-17T06:51:03.246Z,73
2023-05-17T06:54:03.295Z,73
2023-05-17T06:57:03.254Z,69.7
2023-05-17T07:00:03.871Z,69.7
2023-05-17T07:03:03.650Z,69.7
2023-05-17T07:06:03.337Z,69.7
2023-05-17T07:09:03.101Z,69.7
2023-05-17T07:12:03.348Z,69.7
2023-05-17T07:15:03.432Z,66.2
2023-05-17T07:18:03.569Z,66.2
2023-05-17T07:21:03.279Z,66.2
2023-05-17T07:24:03.291Z,66.2
2023-05-17T07:27:03.248Z,66.2
2023-05-17T07:30:03.278Z,66.2
2023-05-17T07:33:03.293Z,66.2
2023-05-17T07:36:03.184Z,66.2
2023-05-17T07:39:03.227Z,66.2
2023-05-17T07:42:06.665Z,63
2023-05-17T07:45:03.271Z,63
2023-05-17T07:48:03.492Z,63
2023-05-17T07:51:03.276Z,63
2023-05-17T07:54:03.320Z,63
2023-05-17T07:57:03.213Z,63
2023-05-17T08:00:03.302Z,63.5
2023-05-17T08:03:03.237Z,63.5
2023-05-17T08:06:03.290Z,63.5
2023-05-17T08:09:03.081Z,63.5
2023-05-17T08:12:04.175Z,63.5
2023-05-17T08:15:03.494Z,63.5
2023-05-17T08:18:07.278Z,63.5
2023-05-17T08:21:03.129Z,63.5
2023-05-17T08:24:06.454Z,63.5
2023-05-17T08:27:03.176Z,60.2
2023-05-17T08:30:07.221Z,60.2
2023-05-17T08:33:03.428Z,60.2
2023-05-17T08:36:03.162Z,60.2
2023-05-17T08:39:03.064Z,60.2
2023-05-17T08:42:03.249Z,59.5
2023-05-17T08:45:03.134Z,59.5
2023-05-17T08:48:03.540Z,59.5
2023-05-17T08:51:03.077Z,59.5
2023-05-17T08:54:03.232Z,59.5
2023-05-17T08:57:03.136Z,59.5
2023-05-17T09:00:03.468Z,59.5
2023-05-17T09:03:03.447Z,59.5
2023-05-17T09:06:03.752Z,59.5
2023-05-17T09:09:03.361Z,59.5
2023-05-17T09:12:03.268Z,59.5
2023-05-17T09:15:03.291Z,59.5
2023-05-17T09:18:03.436Z,59.5
2023-05-17T09:21:03.334Z,59.5
2023-05-17T09:24:10.532Z,59.5
2023-05-17T09:27:03.074Z,59.5
2023-05-17T09:30:03.327Z,59.5
2023-05-17T09:33:03.279Z,59.5
2023-05-17T09:36:03.184Z,59.5
2023-05-17T09:39:03.347Z,59.2
2023-05-17T09:42:03.133Z,59.2
2023-05-17T09:45:03.204Z,59.2
2023-05-17T09:48:03.372Z,59.2
2023-05-17T09:51:03.230Z,59.2
2023-05-17T09:54:03.249Z,59.2
2023-05-17T09:57:03.176Z,59.2
2023-05-17T10:00:03.322Z,59.2
2023-05-17T10:03:03.403Z,59.2
2023-05-17T10:06:03.087Z,59.2
2023-05-17T10:09:03.212Z,59.2
2023-05-17T10:12:03.134Z,59.2
2023-05-17T10:15:03.431Z,59.2
2023-05-17T10:18:03.376Z,59.2
2023-05-17T10:21:03.409Z,59.2
2023-05-17T10:24:03.178Z,59.2
2023-05-17T10:27:03.178Z,59.2
2023-05-17T10:30:03.695Z,59.2
2023-05-17T10:33:03.551Z,59.2
2023-05-17T10:36:03.269Z,59.2
2023-05-17T10:39:03.357Z,59.2
2023-05-17T10:42:17.701Z,59.2
2023-05-17T10:45:03.168Z,56.1
2023-05-17T10:48:03.870Z,56.1
2023-05-17T10:51:04.442Z,56.1
2023-05-17T10:54:03.320Z,56.1
2023-05-17T10:57:03.197Z,56.1
2023-05-17T11:00:03.388Z,56.1
2023-05-17T11:03:03.274Z,56.6
2023-05-17T11:06:05.172Z,56.6
2023-05-17T11:09:03.262Z,56.6
2023-05-17T11:12:03.329Z,56.6
2023-05-17T11:15:03.483Z,56.6
2023-05-17T11:18:03.664Z,56.6
2023-05-17T11:21:03.644Z,56.6
2023-05-17T11:24:03.347Z,56.6
2023-05-17T11:27:03.415Z,56.6
2023-05-17T11:30:03.335Z,56.6
2023-05-17T11:33:03.702Z,56.6
2023-05-17T11:36:03.304Z,52.6
2023-05-17T11:39:10.753Z,52.6
2023-05-17T11:42:03.471Z,52.6
2023-05-17T11:45:03.410Z,52.6
2023-05-17T11:48:03.530Z,52.6
2023-05-17T11:51:04.927Z,52.6
2023-05-17T11:54:03.194Z,53.3
2023-05-17T11:57:03.202Z,53.3
2023-05-17T12:00:03.334Z,53.3
2023-05-17T12:03:03.455Z,53.3
2023-05-17T12:06:03.428Z,53.3
2023-05-17T12:09:03.352Z,53.3
2023-05-17T12:12:03.155Z,53.3
2023-05-17T12:15:03.205Z,53.3
2023-05-17T12:18:03.375Z,53.3
2023-05-17T12:21:03.091Z,53.3
2023-05-17T12:24:03.238Z,53.3
2023-05-17T12:27:03.193Z,53.3
2023-05-17T12:30:03.308Z,53.3
2023-05-17T12:33:03.505Z,53.3
2023-05-17T12:36:03.201Z,53.3
2023-05-17T12:39:03.160Z,53.3
2023-05-17T12:42:03.158Z,53.3
2023-05-17T12:45:03.214Z,53.3
2023-05-17T12:48:03.305Z,53.3
2023-05-17T12:51:03.213Z,53.3
2023-05-17T12:54:03.213Z,53.3
2023-05-17T12:57:03.241Z,53.3
2023-05-17T13:00:03.421Z,52.8
2023-05-17T13:03:03.353Z,52.8
2023-05-17T13:06:03.313Z,52.8
2023-05-17T13:09:03.339Z,52.8
2023-05-17T13:12:03.329Z,52.8
2023-05-17T13:15:03.215Z,52.8
2023-05-17T13:18:03.622Z,52.8
2023-05-17T13:21:03.237Z,52.8
2023-05-17T13:24:03.398Z,52.8
2023-05-17T13:27:03.242Z,52.8
2023-05-17T13:30:03.285Z,52.8
2023-05-17T13:33:03.465Z,52.8
2023-05-17T13:36:03.255Z,52.8
2023-05-17T13:39:03.260Z,52.8
2023-05-17T13:42:03.282Z,52.8
2023-05-17T13:45:03.221Z,52.8
2023-05-17T13:48:03.455Z,52.8
2023-05-17T13:51:03.246Z,50.2
2023-05-17T13:54:07.089Z,50.2
2023-05-17T13:57:03.312Z,50.2
2023-05-17T14:00:03.377Z,50.2
2023-05-17T14:03:03.533Z,50.2
2023-05-17T14:06:03.403Z,50.2
2023-05-17T14:09:03.290Z,50.2
2023-05-17T14:12:03.699Z,50.2
2023-05-17T14:15:03.290Z,50.2
2023-05-17T14:18:03.396Z,50.2
2023-05-17T14:21:03.553Z,50.2
2023-05-17T14:24:03.798Z,50.2
2023-05-17T14:27:03.254Z,50.2
2023-05-17T14:30:03.391Z,50.2
2023-05-17T14:33:03.179Z,50.2
2023-05-17T14:36:03.094Z,50.2
2023-05-17T14:39:03.136Z,50.2
2023-05-17T14:42:03.133Z,50.2
2023-05-17T14:45:03.166Z,50.2
2023-05-17T14:48:03.343Z,50.8
2023-05-17T14:51:03.129Z,50.8
2023-05-17T14:54:03.138Z,50.8
2023-05-17T14:57:03.065Z,50
2023-05-17T15:00:03.374Z,50
2023-05-17T15:03:03.308Z,50
2023-05-17T15:06:11.043Z,50
2023-05-17T15:09:03.138Z,50
2023-05-17T15:12:03.128Z,50
2023-05-17T15:15:03.164Z,50
2023-05-17T15:18:03.274Z,50
2023-05-17T15:21:03.121Z,50
2023-05-17T15:24:03.095Z,50
2023-05-17T15:27:03.143Z,50
2023-05-17T15:30:03.128Z,50
2023-05-17T15:33:03.267Z,50
2023-05-17T15:36:03.253Z,50
2023-05-17T15:39:03.075Z,50
2023-05-17T15:42:03.086Z,50
2023-05-17T15:45:03.042Z,50
2023-05-17T15:48:03.098Z,50
2023-05-17T15:51:03.011Z,50
2023-05-17T15:54:03.050Z,50
2023-05-17T15:57:03.239Z,51.4
2023-05-17T16:00:03.138Z,51.4
2023-05-17T16:03:03.181Z,51.4
2023-05-17T16:06:03.199Z,51.4
2023-05-17T16:09:03.100Z,51.4
2023-05-17T16:12:03.093Z,51.4
2023-05-17T16:15:03.036Z,51.4
2023-05-17T16:18:03.533Z,51.4
2023-05-17T16:21:03.074Z,51.4
2023-05-17T16:24:04.926Z,51.4
2023-05-17T16:27:04.247Z,51.4
2023-05-17T16:30:03.069Z,51.4
2023-05-17T16:33:04.096Z,51.4
2023-05-17T16:36:03.040Z,51.4
2023-05-17T16:39:03.520Z,51.4
2023-05-17T16:42:03.183Z,51.2
2023-05-17T16:45:03.468Z,51.2
2023-05-17T16:48:03.214Z,51.2
2023-05-17T16:51:03.077Z,51.2
2023-05-17T16:54:03.060Z,51.2
2023-05-17T16:57:03.228Z,51.2
2023-05-17T17:00:03.594Z,51.2
2023-05-17T17:03:03.854Z,51.2
2023-05-17T17:06:03.107Z,51.2
2023-05-17T17:09:03.338Z,51.2
2023-05-17T17:12:24.473Z,51.2
2023-05-17T17:15:03.481Z,51.2
2023-05-17T17:18:03.183Z,51.9
2023-05-17T17:21:04.002Z,51.9
2023-05-17T17:24:03.268Z,51.9
2023-05-17T17:27:03.044Z,51.9
2023-05-17T17:30:03.080Z,51.9
2023-05-17T17:33:03.743Z,51.9
2023-05-17T17:36:03.064Z,51.9
2023-05-17T17:39:03.211Z,51.9
2023-05-17T17:42:03.168Z,51.9
2023-05-17T17:45:03.088Z,52.4
2023-05-17T17:48:03.320Z,52.4
2023-05-17T17:51:03.078Z,52.4
2023-05-17T17:54:03.135Z,52.4
2023-05-17T17:57:03.081Z,52.4
2023-05-17T18:00:03.150Z,52.4
2023-05-17T18:03:03.508Z,52.4
2023-05-17T18:06:03.104Z,52.4
2023-05-17T18:09:03.043Z,52.4
2023-05-17T18:12:02.996Z,55.7
2023-05-17T18:15:03.054Z,55.7
2023-05-17T18:18:03.228Z,55.7
2023-05-17T18:21:03.107Z,55.7
2023-05-17T18:24:03.086Z,55.7
2023-05-17T18:27:03.106Z,55.7
2023-05-17T18:30:03.036Z,55.7
2023-05-17T18:33:03.158Z,56.4
2023-05-17T18:36:03.101Z,56.4
2023-05-17T18:39:03.047Z,56.4
2023-05-17T18:42:03.060Z,56.4
2023-05-17T18:45:03.063Z,56.4
2023-05-17T18:48:03.318Z,56.4
2023-05-17T18:51:03.080Z,56.4
2023-05-17T18:54:03.069Z,56.4
2023-05-17T18:57:03.087Z,58.3
2023-05-17T19:00:03.233Z,58.3
2023-05-17T19:03:03.301Z,58.6
2023-05-17T19:06:03.119Z,58.6
2023-05-17T19:09:03.083Z,58.6
2023-05-17T19:12:03.013Z,58.6
2023-05-17T19:15:03.083Z,58.6
2023-05-17T19:18:03.134Z,58.6
2023-05-17T19:21:03.028Z,60.3
2023-05-17T19:24:03.009Z,60.3
2023-05-17T19:27:03.115Z,60.3
2023-05-17T19:30:03.054Z,60.3
2023-05-17T19:33:03.163Z,60.3
2023-05-17T19:36:03.075Z,60.3
2023-05-17T19:39:03.037Z,60.6
2023-05-17T19:42:02.988Z,60.6
2023-05-17T19:45:03.074Z,60.6
2023-05-17T19:48:03.162Z,60.6
2023-05-17T19:51:03.024Z,60.6
2023-05-17T19:54:03.134Z,62
2023-05-17T19:57:03.035Z,62
2023-05-17T20:00:03.051Z,62
2023-05-17T20:03:03.284Z,62
2023-05-17T20:06:03.049Z,62
2023-05-17T20:09:03.029Z,62
2023-05-17T20:12:03.010Z,62
2023-05-17T20:15:02.991Z,62
2023-05-17T20:18:03.212Z,63
2023-05-17T20:21:03.032Z,63
2023-05-17T20:24:03.199Z,63
2023-05-17T20:27:03.036Z,63
2023-05-17T20:30:03.032Z,63
2023-05-17T20:33:03.174Z,63
2023-05-17T20:36:03.004Z,63
2023-05-17T20:39:02.982Z,63
2023-05-17T20:42:03.084Z,64.1
2023-05-17T20:45:03.182Z,64.1
2023-05-17T20:48:03.081Z,64.1
2023-05-17T20:51:03.061Z,64.1
2023-05-17T20:54:03.045Z,64.1
2023-05-17T20:57:03.046Z,64.1
2023-05-17T21:00:03.310Z,64.1
2023-05-17T21:03:03.185Z,66
2023-05-17T21:06:03.022Z,66
2023-05-17T21:09:03.021Z,66
2023-05-17T21:12:03.026Z,66
2023-05-17T21:15:19.563Z,66
2023-05-17T21:18:03.297Z,66
2023-05-17T21:21:03.014Z,66
2023-05-17T21:24:03.171Z,66
2023-05-17T21:27:02.973Z,66
2023-05-17T21:30:03.005Z,66
2023-05-17T21:33:03.152Z,66
2023-05-17T21:36:02.955Z,67
2023-05-17T21:39:03.025Z,67
2023-05-17T21:42:03.064Z,67
2023-05-17T21:45:03.060Z,67
2023-05-17T21:48:03.175Z,67
2023-05-17T21:51:02.982Z,67
2023-05-17T21:54:03.053Z,67
2023-05-17T21:57:03.013Z,67
2023-05-17T22:00:03.450Z,67
2023-05-17T22:03:03.342Z,67
2023-05-17T22:06:03.003Z,67
2023-05-17T22:09:02.983Z,67
2023-05-17T22:12:03.073Z,67
2023-05-17T22:15:02.996Z,68.1
2023-05-17T22:18:03.080Z,68.1
2023-05-17T22:21:03.013Z,68.1
2023-05-17T22:24:03.058Z,68.1
2023-05-17T22:27:03.026Z,68.1
2023-05-17T22:30:03.199Z,68.1
2023-05-17T22:33:03.149Z,68.1
2023-05-17T22:36:03.045Z,68.1
2023-05-17T22:39:02.955Z,68.1
2023-05-17T22:42:02.980Z,68.1
2023-05-17T22:45:03.058Z,68.1
2023-05-17T22:48:03.219Z,68.1
2023-05-17T22:51:03.132Z,68.1
2023-05-17T22:54:03.001Z,68.1
2023-05-17T22:57:03.026Z,68.1
2023-05-17T23:00:03.075Z,68.1
2023-05-17T23:03:03.212Z,68.1
2023-05-17T23:06:03.213Z,68.1
2023-05-17T23:09:02.989Z,68.1
2023-05-17T23:12:03.079Z,69
2023-05-17T23:15:03.010Z,69
2023-05-17T23:18:03.340Z,69
2023-05-17T23:21:02.998Z,69
2023-05-17T23:24:03.006Z,69
2023-05-17T23:27:03.058Z,69
2023-05-17T23:30:03.021Z,69
2023-05-17T23:33:03.101Z,69
2023-05-17T23:36:03.073Z,69
2023-05-17T23:39:03.131Z,69
2023-05-17T23:42:02.989Z,69
2023-05-17T23:45:03.086Z,69.7
2023-05-17T23:48:03.483Z,69.7
2023-05-17T23:51:03.043Z,69.7
2023-05-17T23:54:02.979Z,69.7
2023-05-17T23:57:03.075Z,69.7
